sensor_id;sensor_type;location;lat;lon;timestamp;P1;durP1;ratioP1;P2;durP2;ratioP2
68821;SDS011;55834;50.870;4.606;2023-02-28T00:01:23;6.57;;;4.53;;
68821;SDS011;55834;50.870;4.606;2023-02-28T00:03:49;7.75;;;5.07;;
68821;SDS011;55834;50.870;4.606;2023-02-28T00:06:15;9.15;;;5.85;;
68821;SDS011;55834;50.870;4.606;2023-02-28T00:08:41;7.63;;;5.85;;
68821;SDS011;55834;50.870;4.606;2023-02-28T00:11:08;7.05;;;4.68;;
68821;SDS011;55834;50.870;4.606;2023-02-28T00:13:36;9.10;;;6.00;;
68821;SDS011;55834;50.870;4.606;2023-02-28T00:16:13;8.00;;;5.35;;
68821;SDS011;55834;50.870;4.606;2023-02-28T00:18:43;7.45;;;4.10;;
68821;SDS011;55834;50.870;4.606;2023-02-28T00:21:09;8.00;;;4.88;;
68821;SDS011;55834;50.870;4.606;2023-02-28T00:23:34;6.97;;;4.30;;
68821;SDS011;55834;50.870;4.606;2023-02-28T00:26:01;7.43;;;5.90;;
68821;SDS011;55834;50.870;4.606;2023-02-28T00:28:26;8.90;;;6.07;;
68821;SDS011;55834;50.870;4.606;2023-02-28T00:30:51;7.13;;;5.80;;
68821;SDS011;55834;50.870;4.606;2023-02-28T00:33:23;7.13;;;3.93;;
68821;SDS011;55834;50.870;4.606;2023-02-28T00:35:50;8.40;;;5.43;;
68821;SDS011;55834;50.870;4.606;2023-02-28T00:38:15;7.33;;;4.97;;
68821;SDS011;55834;50.870;4.606;2023-02-28T00:40:41;7.68;;;4.57;;
68821;SDS011;55834;50.870;4.606;2023-02-28T00:43:07;8.55;;;5.18;;
68821;SDS011;55834;50.870;4.606;2023-02-28T00:45:32;6.73;;;4.50;;
68821;SDS011;55834;50.870;4.606;2023-02-28T00:47:57;7.40;;;5.43;;
68821;SDS011;55834;50.870;4.606;2023-02-28T00:50:23;7.37;;;5.00;;
68821;SDS011;55834;50.870;4.606;2023-02-28T00:52:48;7.22;;;4.15;;
68821;SDS011;55834;50.870;4.606;2023-02-28T00:55:13;6.13;;;4.93;;
68821;SDS011;55834;50.870;4.606;2023-02-28T00:57:39;10.13;;;5.82;;
68821;SDS011;55834;50.870;4.606;2023-02-28T01:00:06;6.13;;;4.55;;
68821;SDS011;55834;50.870;4.606;2023-02-28T01:02:32;6.93;;;4.72;;
68821;SDS011;55834;50.870;4.606;2023-02-28T01:04:58;9.15;;;5.47;;
68821;SDS011;55834;50.870;4.606;2023-02-28T01:07:23;7.20;;;4.90;;
68821;SDS011;55834;50.870;4.606;2023-02-28T01:09:48;10.40;;;5.70;;
68821;SDS011;55834;50.870;4.606;2023-02-28T01:12:14;8.43;;;4.97;;
68821;SDS011;55834;50.870;4.606;2023-02-28T01:14:39;7.55;;;6.57;;
68821;SDS011;55834;50.870;4.606;2023-02-28T01:17:05;5.65;;;5.07;;
68821;SDS011;55834;50.870;4.606;2023-02-28T01:19:30;6.70;;;4.60;;
68821;SDS011;55834;50.870;4.606;2023-02-28T01:21:55;5.03;;;4.53;;
68821;SDS011;55834;50.870;4.606;2023-02-28T01:24:21;7.50;;;4.73;;
68821;SDS011;55834;50.870;4.606;2023-02-28T01:26:46;9.03;;;4.87;;
68821;SDS011;55834;50.870;4.606;2023-02-28T01:29:11;9.13;;;5.90;;
68821;SDS011;55834;50.870;4.606;2023-02-28T01:31:37;6.70;;;5.60;;
68821;SDS011;55834;50.870;4.606;2023-02-28T01:34:02;8.55;;;5.07;;
68821;SDS011;55834;50.870;4.606;2023-02-28T01:36:28;7.53;;;5.20;;
68821;SDS011;55834;50.870;4.606;2023-02-28T01:38:54;7.22;;;6.07;;
68821;SDS011;55834;50.870;4.606;2023-02-28T01:41:20;8.40;;;6.00;;
68821;SDS011;55834;50.870;4.606;2023-02-28T01:46:13;9.00;;;6.13;;
68821;SDS011;55834;50.870;4.606;2023-02-28T01:48:42;8.05;;;5.47;;
68821;SDS011;55834;50.870;4.606;2023-02-28T01:51:20;6.60;;;4.38;;
68821;SDS011;55834;50.870;4.606;2023-02-28T01:53:55;8.90;;;5.63;;
68821;SDS011;55834;50.870;4.606;2023-02-28T01:56:24;7.75;;;5.10;;
68821;SDS011;55834;50.870;4.606;2023-02-28T01:58:54;6.85;;;4.82;;
68821;SDS011;55834;50.870;4.606;2023-02-28T02:01:20;10.10;;;5.20;;
68821;SDS011;55834;50.870;4.606;2023-02-28T02:03:54;3.90;;;3.60;;
68821;SDS011;55834;50.870;4.606;2023-02-28T02:06:26;9.75;;;6.90;;
68821;SDS011;55834;50.870;4.606;2023-02-28T02:08:55;6.80;;;5.75;;
68821;SDS011;55834;50.870;4.606;2023-02-28T02:11:20;6.77;;;5.37;;
68821;SDS011;55834;50.870;4.606;2023-02-28T02:14:10;8.23;;;5.57;;
68821;SDS011;55834;50.870;4.606;2023-02-28T02:27:51;7.43;;;5.60;;
68821;SDS011;55834;50.870;4.606;2023-02-28T02:36:31;9.05;;;5.38;;
68821;SDS011;55834;50.870;4.606;2023-02-28T02:39:06;10.85;;;6.00;;
68821;SDS011;55834;50.870;4.606;2023-02-28T02:44:13;14.10;;;8.98;;
68821;SDS011;55834;50.870;4.606;2023-02-28T02:46:42;8.63;;;6.00;;
68821;SDS011;55834;50.870;4.606;2023-02-28T02:49:12;9.35;;;6.80;;
68821;SDS011;55834;50.870;4.606;2023-02-28T02:51:42;10.43;;;6.63;;
68821;SDS011;55834;50.870;4.606;2023-02-28T02:54:17;14.95;;;7.80;;
68821;SDS011;55834;50.870;4.606;2023-02-28T02:56:48;10.70;;;7.22;;
68821;SDS011;55834;50.870;4.606;2023-02-28T03:01:46;8.75;;;6.15;;
68821;SDS011;55834;50.870;4.606;2023-02-28T03:04:24;8.77;;;6.40;;
68821;SDS011;55834;50.870;4.606;2023-02-28T03:06:55;9.73;;;6.45;;
68821;SDS011;55834;50.870;4.606;2023-02-28T03:09:24;9.50;;;7.85;;
68821;SDS011;55834;50.870;4.606;2023-02-28T03:11:50;11.57;;;8.32;;
68821;SDS011;55834;50.870;4.606;2023-02-28T03:17:11;7.55;;;5.40;;
68821;SDS011;55834;50.870;4.606;2023-02-28T03:28:16;7.75;;;5.50;;
68821;SDS011;55834;50.870;4.606;2023-02-28T03:33:29;8.27;;;6.72;;
68821;SDS011;55834;50.870;4.606;2023-02-28T03:36:02;8.80;;;6.43;;
68821;SDS011;55834;50.870;4.606;2023-02-28T03:38:33;8.55;;;6.30;;
68821;SDS011;55834;50.870;4.606;2023-02-28T03:41:09;11.18;;;7.15;;
68821;SDS011;55834;50.870;4.606;2023-02-28T03:43:40;10.18;;;5.97;;
68821;SDS011;55834;50.870;4.606;2023-02-28T03:46:14;9.27;;;5.47;;
68821;SDS011;55834;50.870;4.606;2023-02-28T03:48:49;12.05;;;7.35;;
68821;SDS011;55834;50.870;4.606;2023-02-28T03:51:18;9.70;;;6.40;;
68821;SDS011;55834;50.870;4.606;2023-02-28T03:53:49;8.88;;;6.65;;
68821;SDS011;55834;50.870;4.606;2023-02-28T03:58:55;9.02;;;6.70;;
68821;SDS011;55834;50.870;4.606;2023-02-28T04:01:32;12.43;;;7.97;;
68821;SDS011;55834;50.870;4.606;2023-02-28T04:06:27;10.98;;;6.97;;
68821;SDS011;55834;50.870;4.606;2023-02-28T04:08:56;10.38;;;6.05;;
68821;SDS011;55834;50.870;4.606;2023-02-28T04:13:55;15.80;;;7.22;;
68821;SDS011;55834;50.870;4.606;2023-02-28T04:16:20;10.40;;;6.88;;
68821;SDS011;55834;50.870;4.606;2023-02-28T04:18:46;7.25;;;6.07;;
68821;SDS011;55834;50.870;4.606;2023-02-28T04:21:11;14.50;;;8.37;;
68821;SDS011;55834;50.870;4.606;2023-02-28T04:23:37;10.40;;;6.90;;
68821;SDS011;55834;50.870;4.606;2023-02-28T04:26:02;7.65;;;5.57;;
68821;SDS011;55834;50.870;4.606;2023-02-28T04:28:29;9.35;;;6.15;;
68821;SDS011;55834;50.870;4.606;2023-02-28T04:30:58;13.93;;;6.32;;
68821;SDS011;55834;50.870;4.606;2023-02-28T04:33:25;9.73;;;6.18;;
68821;SDS011;55834;50.870;4.606;2023-02-28T04:36:04;6.83;;;5.80;;
68821;SDS011;55834;50.870;4.606;2023-02-28T04:38:32;10.98;;;7.72;;
68821;SDS011;55834;50.870;4.606;2023-02-28T04:40:59;11.65;;;6.93;;
68821;SDS011;55834;50.870;4.606;2023-02-28T04:43:28;12.90;;;7.32;;
68821;SDS011;55834;50.870;4.606;2023-02-28T04:45:55;12.50;;;6.60;;
68821;SDS011;55834;50.870;4.606;2023-02-28T04:48:24;10.57;;;7.53;;
68821;SDS011;55834;50.870;4.606;2023-02-28T04:50:50;14.38;;;7.85;;
68821;SDS011;55834;50.870;4.606;2023-02-28T04:53:16;10.90;;;7.57;;
68821;SDS011;55834;50.870;4.606;2023-02-28T04:55:42;11.07;;;7.18;;
68821;SDS011;55834;50.870;4.606;2023-02-28T04:58:08;12.02;;;8.10;;
68821;SDS011;55834;50.870;4.606;2023-02-28T05:00:33;12.00;;;7.43;;
68821;SDS011;55834;50.870;4.606;2023-02-28T05:02:59;14.03;;;7.40;;
68821;SDS011;55834;50.870;4.606;2023-02-28T05:05:25;10.87;;;7.83;;
68821;SDS011;55834;50.870;4.606;2023-02-28T05:07:51;10.88;;;8.32;;
68821;SDS011;55834;50.870;4.606;2023-02-28T05:10:16;10.33;;;6.90;;
68821;SDS011;55834;50.870;4.606;2023-02-28T05:12:41;12.50;;;7.78;;
68821;SDS011;55834;50.870;4.606;2023-02-28T05:15:08;8.17;;;6.10;;
68821;SDS011;55834;50.870;4.606;2023-02-28T05:17:37;10.35;;;6.15;;
68821;SDS011;55834;50.870;4.606;2023-02-28T05:20:03;10.80;;;6.63;;
68821;SDS011;55834;50.870;4.606;2023-02-28T05:22:29;12.35;;;7.78;;
68821;SDS011;55834;50.870;4.606;2023-02-28T05:24:55;9.65;;;8.02;;
68821;SDS011;55834;50.870;4.606;2023-02-28T05:27:20;11.93;;;7.40;;
68821;SDS011;55834;50.870;4.606;2023-02-28T05:29:46;9.75;;;8.00;;
68821;SDS011;55834;50.870;4.606;2023-02-28T05:32:11;10.10;;;7.77;;
68821;SDS011;55834;50.870;4.606;2023-02-28T05:34:38;11.98;;;9.07;;
68821;SDS011;55834;50.870;4.606;2023-02-28T05:37:04;13.20;;;8.88;;
68821;SDS011;55834;50.870;4.606;2023-02-28T05:39:30;13.18;;;9.20;;
68821;SDS011;55834;50.870;4.606;2023-02-28T05:41:55;13.37;;;8.17;;
68821;SDS011;55834;50.870;4.606;2023-02-28T05:44:20;15.33;;;10.63;;
68821;SDS011;55834;50.870;4.606;2023-02-28T05:46:46;12.63;;;9.93;;
68821;SDS011;55834;50.870;4.606;2023-02-28T05:49:11;12.50;;;8.13;;
68821;SDS011;55834;50.870;4.606;2023-02-28T05:51:37;13.70;;;8.98;;
68821;SDS011;55834;50.870;4.606;2023-02-28T05:54:04;9.52;;;7.38;;
68821;SDS011;55834;50.870;4.606;2023-02-28T05:56:30;10.55;;;8.15;;
68821;SDS011;55834;50.870;4.606;2023-02-28T05:58:56;12.18;;;7.97;;
68821;SDS011;55834;50.870;4.606;2023-02-28T06:03:50;9.80;;;6.32;;
68821;SDS011;55834;50.870;4.606;2023-02-28T06:06:15;9.65;;;6.15;;
68821;SDS011;55834;50.870;4.606;2023-02-28T06:08:41;8.85;;;6.32;;
68821;SDS011;55834;50.870;4.606;2023-02-28T06:11:08;10.07;;;7.35;;
68821;SDS011;55834;50.870;4.606;2023-02-28T06:13:33;9.90;;;7.05;;
68821;SDS011;55834;50.870;4.606;2023-02-28T06:16:03;14.00;;;9.20;;
68821;SDS011;55834;50.870;4.606;2023-02-28T06:18:29;11.73;;;7.65;;
68821;SDS011;55834;50.870;4.606;2023-02-28T06:20:54;11.70;;;7.33;;
68821;SDS011;55834;50.870;4.606;2023-02-28T06:23:20;9.60;;;7.50;;
68821;SDS011;55834;50.870;4.606;2023-02-28T06:25:46;14.88;;;7.43;;
68821;SDS011;55834;50.870;4.606;2023-02-28T06:28:12;11.63;;;7.97;;
68821;SDS011;55834;50.870;4.606;2023-02-28T06:30:37;12.88;;;9.80;;
68821;SDS011;55834;50.870;4.606;2023-02-28T06:33:04;12.32;;;8.82;;
68821;SDS011;55834;50.870;4.606;2023-02-28T06:35:30;10.98;;;8.30;;
68821;SDS011;55834;50.870;4.606;2023-02-28T06:37:56;12.57;;;8.43;;
68821;SDS011;55834;50.870;4.606;2023-02-28T06:40:21;11.15;;;8.07;;
68821;SDS011;55834;50.870;4.606;2023-02-28T06:42:47;7.47;;;5.65;;
68821;SDS011;55834;50.870;4.606;2023-02-28T06:45:12;12.80;;;9.20;;
68821;SDS011;55834;50.870;4.606;2023-02-28T06:47:38;10.18;;;8.77;;
68821;SDS011;55834;50.870;4.606;2023-02-28T06:50:06;14.45;;;7.65;;
68821;SDS011;55834;50.870;4.606;2023-02-28T06:52:32;10.02;;;6.53;;
68821;SDS011;55834;50.870;4.606;2023-02-28T06:55:01;12.70;;;8.02;;
68821;SDS011;55834;50.870;4.606;2023-02-28T06:57:29;11.57;;;9.60;;
68821;SDS011;55834;50.870;4.606;2023-02-28T06:59:57;13.25;;;7.93;;
68821;SDS011;55834;50.870;4.606;2023-02-28T07:02:26;17.42;;;11.35;;
68821;SDS011;55834;50.870;4.606;2023-02-28T07:04:52;12.05;;;8.85;;
68821;SDS011;55834;50.870;4.606;2023-02-28T07:07:17;10.38;;;7.47;;
68821;SDS011;55834;50.870;4.606;2023-02-28T07:09:43;11.63;;;9.30;;
68821;SDS011;55834;50.870;4.606;2023-02-28T07:12:08;11.57;;;6.77;;
68821;SDS011;55834;50.870;4.606;2023-02-28T07:14:36;12.90;;;8.70;;
68821;SDS011;55834;50.870;4.606;2023-02-28T07:17:01;12.77;;;7.50;;
68821;SDS011;55834;50.870;4.606;2023-02-28T07:19:27;12.35;;;8.63;;
68821;SDS011;55834;50.870;4.606;2023-02-28T07:21:52;12.98;;;8.20;;
68821;SDS011;55834;50.870;4.606;2023-02-28T07:24:18;12.88;;;8.25;;
68821;SDS011;55834;50.870;4.606;2023-02-28T07:26:43;10.88;;;7.65;;
68821;SDS011;55834;50.870;4.606;2023-02-28T07:29:09;11.10;;;8.07;;
68821;SDS011;55834;50.870;4.606;2023-02-28T07:31:34;10.27;;;7.22;;
68821;SDS011;55834;50.870;4.606;2023-02-28T07:34:00;10.57;;;7.40;;
68821;SDS011;55834;50.870;4.606;2023-02-28T07:36:25;8.98;;;6.93;;
68821;SDS011;55834;50.870;4.606;2023-02-28T07:38:51;7.85;;;5.75;;
68821;SDS011;55834;50.870;4.606;2023-02-28T07:41:17;9.20;;;5.33;;
68821;SDS011;55834;50.870;4.606;2023-02-28T07:43:44;9.18;;;5.40;;
68821;SDS011;55834;50.870;4.606;2023-02-28T07:46:11;7.68;;;6.05;;
68821;SDS011;55834;50.870;4.606;2023-02-28T07:48:39;9.07;;;6.45;;
68821;SDS011;55834;50.870;4.606;2023-02-28T07:51:05;10.57;;;6.45;;
68821;SDS011;55834;50.870;4.606;2023-02-28T07:53:31;9.25;;;6.03;;
68821;SDS011;55834;50.870;4.606;2023-02-28T07:55:57;10.05;;;6.78;;
68821;SDS011;55834;50.870;4.606;2023-02-28T07:58:23;6.88;;;6.03;;
68821;SDS011;55834;50.870;4.606;2023-02-28T08:00:49;10.05;;;7.32;;
68821;SDS011;55834;50.870;4.606;2023-02-28T08:03:17;8.77;;;6.03;;
68821;SDS011;55834;50.870;4.606;2023-02-28T08:05:43;10.50;;;6.72;;
68821;SDS011;55834;50.870;4.606;2023-02-28T08:08:09;10.23;;;6.75;;
68821;SDS011;55834;50.870;4.606;2023-02-28T08:10:34;8.63;;;6.23;;
68821;SDS011;55834;50.870;4.606;2023-02-28T08:12:59;7.28;;;5.70;;
68821;SDS011;55834;50.870;4.606;2023-02-28T08:15:25;9.43;;;5.72;;
68821;SDS011;55834;50.870;4.606;2023-02-28T08:17:51;10.55;;;5.57;;
68821;SDS011;55834;50.870;4.606;2023-02-28T08:20:16;8.13;;;6.30;;
68821;SDS011;55834;50.870;4.606;2023-02-28T08:22:42;7.87;;;5.70;;
68821;SDS011;55834;50.870;4.606;2023-02-28T08:25:07;8.23;;;5.65;;
68821;SDS011;55834;50.870;4.606;2023-02-28T08:27:33;7.15;;;4.25;;
68821;SDS011;55834;50.870;4.606;2023-02-28T08:30:00;6.70;;;5.18;;
68821;SDS011;55834;50.870;4.606;2023-02-28T08:32:26;8.48;;;5.32;;
68821;SDS011;55834;50.870;4.606;2023-02-28T08:34:51;5.70;;;4.13;;
68821;SDS011;55834;50.870;4.606;2023-02-28T08:37:16;7.33;;;4.43;;
68821;SDS011;55834;50.870;4.606;2023-02-28T08:39:42;6.30;;;4.60;;
68821;SDS011;55834;50.870;4.606;2023-02-28T08:42:07;5.83;;;3.67;;
68821;SDS011;55834;50.870;4.606;2023-02-28T08:44:32;5.47;;;4.33;;
68821;SDS011;55834;50.870;4.606;2023-02-28T08:46:58;7.93;;;4.23;;
68821;SDS011;55834;50.870;4.606;2023-02-28T08:49:25;5.35;;;3.88;;
68821;SDS011;55834;50.870;4.606;2023-02-28T08:51:50;7.55;;;3.47;;
68821;SDS011;55834;50.870;4.606;2023-02-28T08:54:15;6.23;;;3.70;;
68821;SDS011;55834;50.870;4.606;2023-02-28T08:56:44;4.95;;;4.35;;
68821;SDS011;55834;50.870;4.606;2023-02-28T08:59:11;6.63;;;3.70;;
68821;SDS011;55834;50.870;4.606;2023-02-28T09:01:36;8.40;;;4.47;;
68821;SDS011;55834;50.870;4.606;2023-02-28T09:04:02;6.18;;;4.13;;
68821;SDS011;55834;50.870;4.606;2023-02-28T09:06:27;4.55;;;3.78;;
68821;SDS011;55834;50.870;4.606;2023-02-28T09:08:56;3.88;;;3.45;;
68821;SDS011;55834;50.870;4.606;2023-02-28T09:11:23;5.53;;;2.97;;
68821;SDS011;55834;50.870;4.606;2023-02-28T09:13:49;5.93;;;4.07;;
68821;SDS011;55834;50.870;4.606;2023-02-28T09:16:15;4.68;;;3.33;;
68821;SDS011;55834;50.870;4.606;2023-02-28T09:18:41;6.40;;;3.45;;
68821;SDS011;55834;50.870;4.606;2023-02-28T09:21:07;4.30;;;3.25;;
68821;SDS011;55834;50.870;4.606;2023-02-28T09:26:00;4.22;;;3.33;;
68821;SDS011;55834;50.870;4.606;2023-02-28T09:28:25;4.63;;;3.10;;
68821;SDS011;55834;50.870;4.606;2023-02-28T09:30:52;5.25;;;3.60;;
68821;SDS011;55834;50.870;4.606;2023-02-28T09:35:48;4.55;;;3.63;;
68821;SDS011;55834;50.870;4.606;2023-02-28T09:38:14;3.35;;;2.85;;
68821;SDS011;55834;50.870;4.606;2023-02-28T09:40:50;3.58;;;2.85;;
68821;SDS011;55834;50.870;4.606;2023-02-28T09:43:19;3.78;;;2.55;;
68821;SDS011;55834;50.870;4.606;2023-02-28T09:46:07;4.43;;;3.35;;
68821;SDS011;55834;50.870;4.606;2023-02-28T09:48:40;4.93;;;2.75;;
68821;SDS011;55834;50.870;4.606;2023-02-28T09:51:15;4.07;;;3.35;;
68821;SDS011;55834;50.870;4.606;2023-02-28T09:53:46;9.35;;;4.63;;
68821;SDS011;55834;50.870;4.606;2023-02-28T09:56:14;6.93;;;3.33;;
68821;SDS011;55834;50.870;4.606;2023-02-28T09:58:57;8.48;;;3.90;;
68821;SDS011;55834;50.870;4.606;2023-02-28T10:01:57;5.38;;;2.85;;
68821;SDS011;55834;50.870;4.606;2023-02-28T10:07:37;6.20;;;2.75;;
68821;SDS011;55834;50.870;4.606;2023-02-28T10:10:26;2.60;;;2.00;;
68821;SDS011;55834;50.870;4.606;2023-02-28T10:12:55;2.47;;;2.15;;
68821;SDS011;55834;50.870;4.606;2023-02-28T10:15:24;2.20;;;1.95;;
68821;SDS011;55834;50.870;4.606;2023-02-28T10:18:05;3.38;;;2.15;;
68821;SDS011;55834;50.870;4.606;2023-02-28T10:20:39;2.25;;;2.05;;
68821;SDS011;55834;50.870;4.606;2023-02-28T10:23:15;3.13;;;2.28;;
68821;SDS011;55834;50.870;4.606;2023-02-28T10:25:46;2.08;;;1.65;;
68821;SDS011;55834;50.870;4.606;2023-02-28T10:28:19;2.40;;;1.48;;
68821;SDS011;55834;50.870;4.606;2023-02-28T10:30:48;3.00;;;1.70;;
68821;SDS011;55834;50.870;4.606;2023-02-28T10:33:28;11.63;;;2.00;;
68821;SDS011;55834;50.870;4.606;2023-02-28T10:35:55;2.72;;;2.05;;
68821;SDS011;55834;50.870;4.606;2023-02-28T10:38:22;2.20;;;1.50;;
68821;SDS011;55834;50.870;4.606;2023-02-28T10:41:40;3.42;;;2.03;;
68821;SDS011;55834;50.870;4.606;2023-02-28T10:44:19;2.22;;;2.03;;
68821;SDS011;55834;50.870;4.606;2023-02-28T10:46:46;2.42;;;1.85;;
68821;SDS011;55834;50.870;4.606;2023-02-28T10:49:14;2.05;;;1.90;;
68821;SDS011;55834;50.870;4.606;2023-02-28T10:51:44;2.47;;;1.05;;
68821;SDS011;55834;50.870;4.606;2023-02-28T10:54:18;1.98;;;1.73;;
68821;SDS011;55834;50.870;4.606;2023-02-28T10:57:04;1.80;;;1.70;;
68821;SDS011;55834;50.870;4.606;2023-02-28T10:59:32;3.97;;;2.00;;
68821;SDS011;55834;50.870;4.606;2023-02-28T11:01:57;3.17;;;2.10;;
68821;SDS011;55834;50.870;4.606;2023-02-28T11:07:05;4.13;;;2.03;;
68821;SDS011;55834;50.870;4.606;2023-02-28T11:09:45;3.30;;;2.17;;
68821;SDS011;55834;50.870;4.606;2023-02-28T11:12:47;2.83;;;1.98;;
68821;SDS011;55834;50.870;4.606;2023-02-28T11:15:27;1.77;;;1.67;;
68821;SDS011;55834;50.870;4.606;2023-02-28T11:17:56;2.95;;;2.25;;
68821;SDS011;55834;50.870;4.606;2023-02-28T11:20:25;3.28;;;1.83;;
68821;SDS011;55834;50.870;4.606;2023-02-28T11:22:53;2.47;;;2.03;;
68821;SDS011;55834;50.870;4.606;2023-02-28T11:27:59;3.15;;;2.35;;
68821;SDS011;55834;50.870;4.606;2023-02-28T11:32:59;4.30;;;1.92;;
68821;SDS011;55834;50.870;4.606;2023-02-28T11:35:31;1.92;;;1.70;;
68821;SDS011;55834;50.870;4.606;2023-02-28T11:40:30;2.60;;;1.73;;
68821;SDS011;55834;50.870;4.606;2023-02-28T11:48:51;2.53;;;2.17;;
68821;SDS011;55834;50.870;4.606;2023-02-28T11:51:30;2.03;;;1.58;;
68821;SDS011;55834;50.870;4.606;2023-02-28T12:05:29;2.75;;;1.73;;
68821;SDS011;55834;50.870;4.606;2023-02-28T12:16:59;1.58;;;1.48;;
68821;SDS011;55834;50.870;4.606;2023-02-28T12:19:35;2.20;;;1.45;;
68821;SDS011;55834;50.870;4.606;2023-02-28T12:24:31;1.97;;;1.73;;
68821;SDS011;55834;50.870;4.606;2023-02-28T12:27:20;2.15;;;1.95;;
68821;SDS011;55834;50.870;4.606;2023-02-28T12:29:51;2.15;;;1.75;;
68821;SDS011;55834;50.870;4.606;2023-02-28T12:32:23;4.53;;;1.80;;
68821;SDS011;55834;50.870;4.606;2023-02-28T12:34:57;3.50;;;2.08;;
68821;SDS011;55834;50.870;4.606;2023-02-28T12:37:31;3.17;;;1.55;;
68821;SDS011;55834;50.870;4.606;2023-02-28T12:40:09;3.15;;;2.03;;
68821;SDS011;55834;50.870;4.606;2023-02-28T12:42:44;2.15;;;1.48;;
68821;SDS011;55834;50.870;4.606;2023-02-28T12:45:20;2.95;;;1.90;;
68821;SDS011;55834;50.870;4.606;2023-02-28T12:47:50;3.13;;;2.85;;
68821;SDS011;55834;50.870;4.606;2023-02-28T12:50:17;2.22;;;1.92;;
68821;SDS011;55834;50.870;4.606;2023-02-28T12:58:47;2.08;;;1.40;;
68821;SDS011;55834;50.870;4.606;2023-02-28T13:10:22;2.67;;;1.92;;
68821;SDS011;55834;50.870;4.606;2023-02-28T13:12:49;2.10;;;1.92;;
68821;SDS011;55834;50.870;4.606;2023-02-28T13:15:21;1.90;;;1.73;;
68821;SDS011;55834;50.870;4.606;2023-02-28T13:17:50;1.70;;;1.55;;
68821;SDS011;55834;50.870;4.606;2023-02-28T13:20:19;6.95;;;2.08;;
68821;SDS011;55834;50.870;4.606;2023-02-28T13:22:48;3.28;;;2.28;;
68821;SDS011;55834;50.870;4.606;2023-02-28T13:27:46;1.98;;;1.52;;
68821;SDS011;55834;50.870;4.606;2023-02-28T13:33:29;3.45;;;2.13;;
68821;SDS011;55834;50.870;4.606;2023-02-28T13:38:46;3.20;;;2.40;;
68821;SDS011;55834;50.870;4.606;2023-02-28T13:44:04;2.63;;;2.35;;
68821;SDS011;55834;50.870;4.606;2023-02-28T13:46:32;2.28;;;1.88;;
68821;SDS011;55834;50.870;4.606;2023-02-28T13:51:45;2.45;;;1.92;;
68821;SDS011;55834;50.870;4.606;2023-02-28T14:04:43;2.47;;;2.00;;
68821;SDS011;55834;50.870;4.606;2023-02-28T14:07:16;3.67;;;1.83;;
68821;SDS011;55834;50.870;4.606;2023-02-28T14:09:46;3.70;;;2.85;;
68821;SDS011;55834;50.870;4.606;2023-02-28T14:17:54;2.78;;;1.70;;
68821;SDS011;55834;50.870;4.606;2023-02-28T14:20:21;2.65;;;2.42;;
68821;SDS011;55834;50.870;4.606;2023-02-28T14:28:19;3.30;;;2.10;;
68821;SDS011;55834;50.870;4.606;2023-02-28T14:31:09;1.92;;;1.83;;
68821;SDS011;55834;50.870;4.606;2023-02-28T14:36:17;2.88;;;2.03;;
68821;SDS011;55834;50.870;4.606;2023-02-28T14:44:00;8.80;;;5.57;;
68821;SDS011;55834;50.870;4.606;2023-02-28T14:46:28;4.07;;;2.72;;
68821;SDS011;55834;50.870;4.606;2023-02-28T14:49:02;2.83;;;2.50;;
68821;SDS011;55834;50.870;4.606;2023-02-28T14:51:30;3.30;;;2.25;;
68821;SDS011;55834;50.870;4.606;2023-02-28T14:53:59;4.47;;;2.80;;
68821;SDS011;55834;50.870;4.606;2023-02-28T14:56:38;2.53;;;2.05;;
68821;SDS011;55834;50.870;4.606;2023-02-28T14:59:05;6.28;;;2.80;;
68821;SDS011;55834;50.870;4.606;2023-02-28T15:01:47;3.30;;;2.80;;
68821;SDS011;55834;50.870;4.606;2023-02-28T15:04:18;2.20;;;1.83;;
68821;SDS011;55834;50.870;4.606;2023-02-28T15:09:40;3.70;;;2.40;;
68821;SDS011;55834;50.870;4.606;2023-02-28T15:12:05;3.92;;;2.60;;
68821;SDS011;55834;50.870;4.606;2023-02-28T15:14:31;3.40;;;2.42;;
68821;SDS011;55834;50.870;4.606;2023-02-28T15:17:02;4.43;;;1.92;;
68821;SDS011;55834;50.870;4.606;2023-02-28T15:19:34;2.50;;;2.30;;
68821;SDS011;55834;50.870;4.606;2023-02-28T15:22:04;3.42;;;2.15;;
68821;SDS011;55834;50.870;4.606;2023-02-28T15:24:38;2.55;;;2.35;;
68821;SDS011;55834;50.870;4.606;2023-02-28T15:27:25;2.28;;;2.05;;
68821;SDS011;55834;50.870;4.606;2023-02-28T15:29:56;3.25;;;2.30;;
68821;SDS011;55834;50.870;4.606;2023-02-28T15:34:57;3.03;;;2.72;;
68821;SDS011;55834;50.870;4.606;2023-02-28T15:37:29;2.53;;;1.92;;
68821;SDS011;55834;50.870;4.606;2023-02-28T15:39:58;2.55;;;1.90;;
68821;SDS011;55834;50.870;4.606;2023-02-28T15:45:45;2.72;;;2.53;;
68821;SDS011;55834;50.870;4.606;2023-02-28T15:48:16;2.97;;;1.98;;
68821;SDS011;55834;50.870;4.606;2023-02-28T15:50:44;5.05;;;2.47;;
68821;SDS011;55834;50.870;4.606;2023-02-28T15:53:12;1.88;;;1.77;;
68821;SDS011;55834;50.870;4.606;2023-02-28T15:55:40;3.78;;;1.67;;
68821;SDS011;55834;50.870;4.606;2023-02-28T15:58:08;2.55;;;2.35;;
68821;SDS011;55834;50.870;4.606;2023-02-28T16:00:38;4.07;;;2.58;;
68821;SDS011;55834;50.870;4.606;2023-02-28T16:03:23;1.73;;;1.63;;
68821;SDS011;55834;50.870;4.606;2023-02-28T16:09:05;6.38;;;3.90;;
68821;SDS011;55834;50.870;4.606;2023-02-28T16:11:38;4.68;;;2.60;;
68821;SDS011;55834;50.870;4.606;2023-02-28T16:14:20;3.03;;;2.42;;
68821;SDS011;55834;50.870;4.606;2023-02-28T16:16:50;2.72;;;2.38;;
68821;SDS011;55834;50.870;4.606;2023-02-28T16:19:18;3.30;;;3.00;;
68821;SDS011;55834;50.870;4.606;2023-02-28T16:21:44;2.40;;;2.20;;
68821;SDS011;55834;50.870;4.606;2023-02-28T16:24:09;2.63;;;2.40;;
68821;SDS011;55834;50.870;4.606;2023-02-28T16:26:35;4.40;;;2.25;;
68821;SDS011;55834;50.870;4.606;2023-02-28T16:29:02;4.10;;;2.30;;
68821;SDS011;55834;50.870;4.606;2023-02-28T16:31:28;3.15;;;2.03;;
68821;SDS011;55834;50.870;4.606;2023-02-28T16:33:54;2.38;;;2.17;;
68821;SDS011;55834;50.870;4.606;2023-02-28T16:36:20;2.70;;;1.58;;
68821;SDS011;55834;50.870;4.606;2023-02-28T16:38:48;3.42;;;2.42;;
68821;SDS011;55834;50.870;4.606;2023-02-28T16:41:18;2.70;;;2.50;;
68821;SDS011;55834;50.870;4.606;2023-02-28T16:43:46;3.83;;;2.30;;
68821;SDS011;55834;50.870;4.606;2023-02-28T16:46:13;3.33;;;1.95;;
68821;SDS011;55834;50.870;4.606;2023-02-28T16:48:39;4.70;;;2.10;;
68821;SDS011;55834;50.870;4.606;2023-02-28T16:51:06;3.63;;;2.05;;
68821;SDS011;55834;50.870;4.606;2023-02-28T16:53:36;2.60;;;2.13;;
68821;SDS011;55834;50.870;4.606;2023-02-28T16:56:01;3.50;;;2.80;;
68821;SDS011;55834;50.870;4.606;2023-02-28T16:58:27;3.00;;;2.10;;
68821;SDS011;55834;50.870;4.606;2023-02-28T17:00:53;2.03;;;1.83;;
68821;SDS011;55834;50.870;4.606;2023-02-28T17:03:22;4.07;;;2.90;;
68821;SDS011;55834;50.870;4.606;2023-02-28T17:05:49;6.03;;;3.25;;
68821;SDS011;55834;50.870;4.606;2023-02-28T17:08:14;9.40;;;4.10;;
68821;SDS011;55834;50.870;4.606;2023-02-28T17:10:41;5.53;;;4.05;;
68821;SDS011;55834;50.870;4.606;2023-02-28T17:13:06;2.43;;;2.23;;
68821;SDS011;55834;50.870;4.606;2023-02-28T17:15:33;3.80;;;3.22;;
68821;SDS011;55834;50.870;4.606;2023-02-28T17:17:59;4.25;;;3.58;;
68821;SDS011;55834;50.870;4.606;2023-02-28T17:20:25;5.03;;;3.30;;
68821;SDS011;55834;50.870;4.606;2023-02-28T17:22:51;5.35;;;2.85;;
68821;SDS011;55834;50.870;4.606;2023-02-28T17:25:20;3.67;;;2.38;;
68821;SDS011;55834;50.870;4.606;2023-02-28T17:27:47;4.32;;;2.72;;
68821;SDS011;55834;50.870;4.606;2023-02-28T17:35:06;5.50;;;3.30;;
68821;SDS011;55834;50.870;4.606;2023-02-28T17:37:32;7.97;;;3.58;;
68821;SDS011;55834;50.870;4.606;2023-02-28T17:39:57;10.47;;;4.97;;
68821;SDS011;55834;50.870;4.606;2023-02-28T17:42:23;5.90;;;3.60;;
68821;SDS011;55834;50.870;4.606;2023-02-28T17:44:48;6.43;;;3.90;;